FZAA/FIH METAR and TAF weather

Enter ICAO airport designator
Station Type Date Time Source
FZAA METAR 2022/01/18 06:00 UTC NOAA

FZAA 180600Z 00000KT 6000 BKN014 23/22 Q1015 NOSIG


Station Type Date Time Source
FZAA Decoded METAR 2022/01/18 06:00 UTC NOAA

Kinshasa / N'Djili, Congo, Democratic Republic of the (FZAA) 04-23S 015-26E 312M
Jan 18, 2022 - 01:00 AM EST / 2022.01.18 0600 UTC
Wind: Calm:0
Visibility: 3 mile(s):0
Sky conditions: mostly cloudy
Temperature: 73 F (23 C)
Dew Point: 71 F (22 C)
Relative Humidity: 94%
Pressure (altimeter): 29.97 in. Hg (1015 hPa)
ob: FZAA 180600Z 00000KT 6000 BKN014 23/22 Q1015 NOSIG
cycle: 6

Station Type Date Time Source
FZAA TAF 2022/01/18 06:33 UTC NOAA

TAF TAF FZAA 180500Z 1806/1912 24006KT 7000 SCT016
BECMG 1811/1813 SCT023 FEW030CB
TEMPO 1815/1820 TS
BECMG 1821/1823 SCT018

Example: see airport list